Time;durP1;ratioP1;P1;durP2;ratioP2;P2;SDS_P1;SDS_P2;PMS_P1;PMS_P2;Temp;Humidity;BMP_temperature;BMP_pressure;BME280_temperature;BME280_humidity;BME280_pressure;Samples;Min_cycle;Max_cycle;Signal;HPM_P1;HPM_P2
2023/10/13 00:00:36;;;;;;;5.60;3.50;;;;;;;12.97;100.00;101837.09;2056467;28;20476;-61
2023/10/13 00:01:37;;;;;;;10.00;3.40;;;;;;;12.98;100.00;101843.47;2056488;28;20233;-61
2023/10/13 00:02:39;;;;;;;8.57;3.87;;;;;;;12.97;100.00;101836.31;2056754;28;20185;-61
2023/10/13 00:03:40;;;;;;;6.93;3.80;;;;;;;12.96;100.00;101841.09;2056867;28;20223;-61
2023/10/13 00:04:42;;;;;;;5.43;3.33;;;;;;;12.95;100.00;101839.50;2056490;28;20487;-61
2023/10/13 00:05:43;;;;;;;7.17;2.83;;;;;;;12.93;100.00;101838.34;2056348;28;20760;-61
2023/10/13 00:06:45;;;;;;;7.33;3.43;;;;;;;12.91;100.00;101841.53;2056102;28;20496;-62
2023/10/13 00:07:45;;;;;;;5.23;3.00;;;;;;;12.91;100.00;101835.19;2056660;28;20443;-61
2023/10/13 00:08:46;;;;;;;4.67;3.10;;;;;;;12.90;100.00;101834.41;2056571;28;20421;-61
2023/10/13 00:09:46;;;;;;;7.37;3.00;;;;;;;12.90;100.00;101833.59;2056125;28;20187;-61
2023/10/13 00:10:47;;;;;;;5.57;3.67;;;;;;;12.89;100.00;101834.81;2057050;28;20175;-61
2023/10/13 00:11:48;;;;;;;7.57;3.67;;;;;;;12.88;100.00;101830.47;2056415;28;20631;-61
2023/10/13 00:12:52;;;;;;;4.50;2.80;;;;;;;12.82;100.00;101816.22;2056454;28;20214;-61
2023/10/13 00:13:54;;;;;;;5.10;3.17;;;;;;;12.84;100.00;101827.72;2056062;28;20201;-61
2023/10/13 00:14:54;;;;;;;5.83;2.90;;;;;;;12.83;100.00;101828.94;2056686;28;20897;-61
2023/10/13 00:15:57;;;;;;;5.77;3.60;;;;;;;12.27;100.00;101743.50;2056089;28;20467;-62
2023/10/13 00:17:03;;;;;;;5.37;3.47;;;;;;;12.75;100.00;101818.34;2056122;28;20614;-62
2023/10/13 00:18:12;;;;;;;5.10;3.20;;;;;;;12.78;100.00;101817.47;2056297;28;20472;-62
2023/10/13 00:19:13;;;;;;;8.33;3.67;;;;;;;12.37;100.00;101755.69;2056531;28;20415;-61
2023/10/13 00:20:35;;;;;;;4.10;3.03;;;;;;;12.76;100.00;101820.69;2055916;28;20426;-61
2023/10/13 00:21:36;;;;;;;4.80;3.33;;;;;;;12.74;100.00;101823.09;2056820;28;20454;-61
2023/10/13 00:22:39;;;;;;;8.80;3.37;;;;;;;12.63;100.00;101808.56;2055863;28;20418;-61
2023/10/13 00:23:53;;;;;;;5.70;3.37;;;;;;;12.74;100.00;101827.88;2056218;28;20189;-61
2023/10/13 00:24:58;;;;;;;5.90;2.90;;;;;;;12.73;100.00;101831.84;2056397;28;20396;-61
2023/10/13 00:25:59;;;;;;;6.43;3.40;;;;;;;12.73;100.00;101834.63;2056112;28;20560;-62
2023/10/13 00:27:01;;;;;;;5.27;3.27;;;;;;;12.66;100.00;101829.19;2055660;28;20463;-62
2023/10/13 00:28:01;;;;;;;9.27;3.53;;;;;;;12.73;100.00;101832.66;2056913;28;20257;-61
2023/10/13 00:29:16;;;;;;;5.20;3.30;;;;;;;12.72;100.00;101833.88;2056271;28;20446;-62
2023/10/13 00:30:27;;;;;;;5.10;3.13;;;;;;;12.71;100.00;101834.28;2048384;28;20177;-61
2023/10/13 00:31:33;;;;;;;5.60;3.40;;;;;;;12.69;100.00;101829.13;2056368;28;20412;-61
2023/10/13 00:32:37;;;;;;;3.97;2.80;;;;;;;12.68;100.00;101844.25;2056325;28;20460;-61
2023/10/13 00:33:40;;;;;;;4.73;3.27;;;;;;;12.66;100.00;101829.94;2056356;28;20543;-61
2023/10/13 00:34:41;;;;;;;6.87;3.07;;;;;;;12.43;100.00;101787.38;2056053;28;20454;-62
2023/10/13 00:35:42;;;;;;;3.53;2.70;;;;;;;12.45;100.00;101793.31;2049806;28;20483;-62
2023/10/13 00:37:10;;;;;;;5.23;3.23;;;;;;;12.62;100.00;101825.66;2047143;28;20199;-62
2023/10/13 00:38:23;;;;;;;5.70;4.07;;;;;;;12.31;100.00;101780.38;2056165;28;20879;-61
2023/10/13 00:39:23;;;;;;;3.90;3.23;;;;;;;12.59;100.00;101827.28;2056247;28;20458;-61
2023/10/13 00:41:50;;;;;;;4.63;3.43;;;;;;;12.59;100.00;101824.50;2056305;28;20202;-61
2023/10/13 00:42:52;;;;;;;6.40;3.90;;;;;;;12.59;100.00;101827.28;2056516;28;20503;-62
2023/10/13 00:44:04;;;;;;;6.80;3.03;;;;;;;12.60;100.00;101825.28;2056308;28;20457;-61
2023/10/13 00:45:06;;;;;;;5.43;3.70;;;;;;;12.57;100.00;101829.69;2055923;28;20454;-61
2023/10/13 00:46:07;;;;;;;8.23;3.70;;;;;;;12.54;100.00;101824.16;2055735;28;20977;-61
2023/10/13 00:47:09;;;;;;;5.73;3.50;;;;;;;12.54;100.00;101838.84;2056233;28;20454;-61
2023/10/13 00:48:12;;;;;;;6.43;3.33;;;;;;;12.54;100.00;101818.59;2056119;28;20528;-61
2023/10/13 00:49:15;;;;;;;5.03;3.27;;;;;;;12.53;100.00;101826.16;2056298;28;20450;-61
2023/10/13 00:50:17;;;;;;;6.37;3.47;;;;;;;12.53;100.00;101817.03;2056320;28;20424;-61
2023/10/13 00:51:32;;;;;;;5.17;3.37;;;;;;;12.48;100.00;101821.06;2055810;28;20630;-62
2023/10/13 00:52:35;;;;;;;8.67;3.23;;;;;;;12.13;100.00;101760.34;2055883;28;20402;-61
2023/10/13 00:53:40;;;;;;;4.60;3.33;;;;;;;12.50;100.00;101824.19;2056436;28;20969;-61
2023/10/13 00:54:40;;;;;;;6.77;3.37;;;;;;;12.50;100.00;101818.66;2055876;28;20520;-61
2023/10/13 00:55:41;;;;;;;6.53;3.50;;;;;;;12.49;100.00;101821.84;2056361;28;20438;-62
2023/10/13 00:56:57;;;;;;;5.20;3.00;;;;;;;12.48;100.00;101812.72;2055662;28;20211;-61
2023/10/13 00:58:02;;;;;;;5.73;3.67;;;;;;;11.98;100.00;101749.81;2056532;28;20410;-61
2023/10/13 00:59:03;;;;;;;7.43;3.73;;;;;;;12.24;100.00;101788.03;2056215;28;20442;-58
2023/10/13 01:00:18;;;;;;;5.53;2.77;;;;;;;12.41;100.00;101818.34;2055437;28;20548;-61
2023/10/13 01:01:22;;;;;;;5.90;3.40;;;;;;;12.38;100.00;101816.41;2055730;28;20206;-61
2023/10/13 01:02:37;;;;;;;7.60;3.33;;;;;;;11.92;100.00;101751.47;2056033;28;21049;-61
2023/10/13 01:03:38;;;;;;;5.53;3.53;;;;;;;12.33;100.00;101816.06;2056390;28;20879;-60
2023/10/13 01:04:38;;;;;;;7.13;3.73;;;;;;;12.31;100.00;101818.50;2056196;28;20470;-61
2023/10/13 01:05:41;;;;;;;5.23;3.43;;;;;;;12.30;100.00;101820.47;2055765;28;20187;-61
2023/10/13 01:06:41;;;;;;;5.47;3.07;;;;;;;12.30;100.00;101816.94;2055425;28;20201;-61
2023/10/13 01:07:42;;;;;;;4.73;3.47;;;;;;;12.06;100.00;101782.66;2056340;28;21063;-61
2023/10/13 01:08:50;;;;;;;5.00;3.47;;;;;;;11.60;100.00;101718.50;2055927;28;20258;-61
2023/10/13 01:09:51;;;;;;;6.17;3.47;;;;;;;12.11;100.00;101814.75;2056218;28;20172;-61
2023/10/13 01:10:53;;;;;;;8.57;3.17;;;;;;;12.21;100.00;101820.22;2055980;28;20417;-61
2023/10/13 01:12:00;;;;;;;4.43;2.93;;;;;;;12.18;100.00;101809.91;2056307;28;20569;-61
2023/10/13 01:13:04;;;;;;;5.13;3.20;;;;;;;11.79;100.00;101761.56;2048545;29;20457;-61
2023/10/13 01:14:05;;;;;;;6.53;3.50;;;;;;;11.69;100.00;101756.91;2048547;29;20419;-61
2023/10/13 01:15:10;;;;;;;5.00;3.40;;;;;;;12.10;100.00;101816.75;2055103;28;20486;-61
2023/10/13 01:16:11;;;;;;;6.83;3.77;;;;;;;11.69;100.00;101757.66;2055429;28;20526;-61
2023/10/13 01:17:11;;;;;;;5.67;3.70;;;;;;;11.93;100.00;101789.19;2056008;28;20453;-61
2023/10/13 01:18:13;;;;;;;5.60;3.50;;;;;;;11.58;100.00;101736.75;2055779;28;20191;-60
2023/10/13 01:19:20;;;;;;;6.27;3.67;;;;;;;12.05;100.00;101814.41;2056197;28;20281;-60
2023/10/13 01:20:21;;;;;;;6.10;3.57;;;;;;;12.03;100.00;101813.25;2055984;28;20450;-60
2023/10/13 01:21:27;;;;;;;7.73;3.40;;;;;;;12.02;100.00;101815.25;2055243;28;20430;-61
2023/10/13 01:22:28;;;;;;;6.93;3.80;;;;;;;12.01;100.00;101818.44;2056134;28;20541;-61
2023/10/13 01:23:29;;;;;;;5.10;3.63;;;;;;;12.02;100.00;101820.00;2056281;28;20438;-61
2023/10/13 01:24:36;;;;;;;6.93;3.57;;;;;;;11.39;100.00;101727.03;2055911;28;20994;-61
2023/10/13 01:25:38;;;;;;;5.43;3.40;;;;;;;12.00;100.00;101825.22;2055747;28;20677;-61
2023/10/13 01:26:40;;;;;;;9.63;5.17;;;;;;;11.98;100.00;101816.47;2055308;28;20894;-61
2023/10/13 01:27:40;;;;;;;6.90;3.93;;;;;;;11.40;100.00;101738.91;2055911;28;20448;-61
2023/10/13 01:28:46;;;;;;;6.20;3.97;;;;;;;11.96;100.00;101828.03;2056069;28;20538;-61
2023/10/13 01:29:48;;;;;;;6.87;3.80;;;;;;;11.96;100.00;101847.47;2055924;28;20625;-61
2023/10/13 01:30:52;;;;;;;5.87;3.37;;;;;;;11.95;100.00;101820.09;2056131;28;20525;-61
2023/10/13 01:31:52;;;;;;;8.60;3.43;;;;;;;11.71;100.00;101785.03;2055753;28;20426;-61
2023/10/13 01:32:54;;;;;;;6.97;3.37;;;;;;;11.97;100.00;101828.78;2056302;28;20522;-60
2023/10/13 01:33:58;;;;;;;6.10;3.23;;;;;;;11.98;100.00;101833.94;2056059;28;20575;-61
2023/10/13 01:35:05;;;;;;;4.83;3.33;;;;;;;11.53;100.00;101751.84;2055840;28;20438;-62
2023/10/13 01:36:12;;;;;;;6.90;3.47;;;;;;;11.95;100.00;101829.22;2055380;28;20800;-61
2023/10/13 01:37:12;;;;;;;7.57;4.00;;;;;;;11.84;100.00;101813.88;2056107;28;21018;-62
2023/10/13 01:38:14;;;;;;;4.80;3.53;;;;;;;11.86;100.00;101825.34;2056119;28;20806;-61
2023/10/13 01:39:16;;;;;;;11.23;4.63;;;;;;;11.91;100.00;101833.22;2056022;28;20217;-62
2023/10/13 01:40:20;;;;;;;8.23;4.23;;;;;;;11.84;100.00;101833.31;2056379;28;20445;-62
2023/10/13 01:41:21;;;;;;;5.57;3.97;;;;;;;11.80;100.00;101830.56;2055684;28;20458;-62
2023/10/13 01:42:24;;;;;;;5.67;3.60;;;;;;;11.80;100.00;101825.03;2056567;28;20540;-62
2023/10/13 01:43:25;;;;;;;7.23;4.13;;;;;;;11.73;100.00;101822.28;2057706;28;20798;-62
2023/10/13 01:44:30;;;;;;;5.73;3.80;;;;;;;11.77;100.00;101827.81;2058107;28;20430;-63
2023/10/13 01:45:30;;;;;;;6.10;3.50;;;;;;;11.74;100.00;101831.44;2049795;28;20215;-62
2023/10/13 01:46:32;;;;;;;5.97;3.20;;;;;;;11.68;100.00;101828.28;2056755;28;20454;-62
2023/10/13 01:47:33;;;;;;;4.83;3.40;;;;;;;11.67;100.00;101835.06;2057594;28;20277;-62
2023/10/13 01:48:38;;;;;;;8.20;3.87;;;;;;;11.59;100.00;101819.63;2057078;28;20434;-62
2023/10/13 01:49:42;;;;;;;6.97;4.00;;;;;;;11.67;100.00;101831.47;2057506;28;20198;-62
2023/10/13 01:50:47;;;;;;;5.97;3.60;;;;;;;11.65;100.00;101820.81;2057822;28;20481;-62
2023/10/13 01:51:48;;;;;;;5.93;3.80;;;;;;;11.65;100.00;101833.88;2057310;28;20454;-62
2023/10/13 01:52:48;;;;;;;5.67;3.30;;;;;;;11.66;100.00;101829.91;2057681;28;20421;-62
2023/10/13 01:53:56;;;;;;;7.37;3.93;;;;;;;11.66;100.00;101839.03;2057537;28;20178;-62
2023/10/13 01:55:00;;;;;;;4.77;3.40;;;;;;;11.55;100.00;101820.84;2057397;28;20194;-62
2023/10/13 01:56:05;;;;;;;5.13;3.27;;;;;;;11.64;100.00;101832.31;2056803;28;20509;-62
2023/10/13 01:57:13;;;;;;;4.77;3.20;;;;;;;11.26;100.00;101773.13;2057833;28;20418;-62
2023/10/13 01:58:15;;;;;;;8.77;3.87;;;;;;;11.65;100.00;101831.91;2049880;28;20477;-62
2023/10/13 01:59:15;;;;;;;5.27;3.43;;;;;;;11.64;100.00;101829.53;2064887;28;20975;-62
2023/10/13 02:00:18;;;;;;;7.07;3.33;;;;;;;11.65;100.00;101834.69;2065077;28;20842;-62
2023/10/13 02:01:29;;;;;;;5.87;3.57;;;;;;;11.66;100.00;101824.34;2055569;28;20225;-62
2023/10/13 02:02:29;;;;;;;7.40;4.13;;;;;;;11.25;100.00;101759.66;2057284;28;20899;-62
2023/10/13 02:03:30;;;;;;;6.07;3.43;;;;;;;11.67;100.00;101829.50;2056530;28;20450;-62
2023/10/13 02:04:42;;;;;;;5.33;3.50;;;;;;;11.65;100.00;101826.34;2056892;28;20664;-61
2023/10/13 02:05:47;;;;;;;5.37;3.60;;;;;;;11.65;100.00;101834.69;2057301;28;20719;-62
2023/10/13 02:06:47;;;;;;;6.17;3.77;;;;;;;11.65;100.00;101820.00;2057161;28;20441;-62
2023/10/13 02:07:48;;;;;;;6.43;3.60;;;;;;;11.65;100.00;101818.03;2064530;28;20420;-62
2023/10/13 02:08:56;;;;;;;6.83;3.40;;;;;;;11.01;100.00;101724.59;2065126;28;20655;-62
2023/10/13 02:09:57;;;;;;;6.17;3.27;;;;;;;11.68;100.00;101813.63;2057505;28;20242;-63
2023/10/13 02:11:01;;;;;;;7.10;4.30;;;;;;;11.65;100.00;101811.66;2057828;28;21023;-62
2023/10/13 02:12:01;;;;;;;6.20;3.90;;;;;;;11.57;100.00;101793.47;2057614;28;20193;-63
2023/10/13 02:13:03;;;;;;;6.37;3.73;;;;;;;11.69;100.00;101815.97;2057338;28;20936;-62
2023/10/13 02:14:04;;;;;;;6.73;3.80;;;;;;;11.69;100.00;101815.97;2057304;28;20293;-62
2023/10/13 02:15:05;;;;;;;4.87;3.50;;;;;;;11.64;100.00;101801.78;2057563;28;20430;-62
2023/10/13 02:16:06;;;;;;;6.47;3.40;;;;;;;11.60;100.00;101804.59;2056600;28;20203;-62
2023/10/13 02:17:13;;;;;;;5.90;3.70;;;;;;;11.52;100.00;101788.38;2057326;28;20453;-62
2023/10/13 02:18:20;;;;;;;10.90;3.73;;;;;;;11.66;100.00;101789.06;2057350;28;20472;-62
2023/10/13 02:19:27;;;;;;;6.07;3.60;;;;;;;11.76;100.00;101804.03;2057078;28;20406;-62
2023/10/13 02:20:41;;;;;;;6.90;3.20;;;;;;;11.77;100.00;101805.59;2057807;28;20411;-59
2023/10/13 02:21:44;;;;;;;5.93;3.57;;;;;;;11.65;100.00;101783.91;2057184;28;20540;-59
2023/10/13 02:22:51;;;;;;;9.03;4.10;;;;;;;11.79;100.00;101805.97;2057357;28;20436;-59
2023/10/13 02:24:00;;;;;;;8.77;3.80;;;;;;;11.81;100.00;101806.34;2057169;28;20390;-59
2023/10/13 02:25:06;;;;;;;7.47;3.13;;;;;;;11.80;100.00;101800.03;2061150;28;20447;-58
2023/10/13 02:26:15;;;;;;;7.50;3.50;;;;;;;11.82;100.00;101794.84;2056479;28;20486;-59
2023/10/13 02:27:16;;;;;;;7.07;3.47;;;;;;;11.82;100.00;101797.63;2057425;28;20403;-59
2023/10/13 02:28:21;;;;;;;6.67;3.00;;;;;;;11.84;100.00;101795.19;2057087;28;20422;-59
2023/10/13 02:29:21;;;;;;;4.83;3.00;;;;;;;10.66;100.00;101605.66;2057669;28;20179;-59
2023/10/13 02:30:23;;;;;;;5.53;3.60;;;;;;;11.05;100.00;101667.88;2057616;28;20924;-59
2023/10/13 02:31:27;;;;;;;6.63;3.93;;;;;;;11.87;100.00;101805.50;2057048;28;20191;-59
2023/10/13 02:32:30;;;;;;;5.40;3.40;;;;;;;11.81;100.00;101787.72;2057042;28;20438;-59
2023/10/13 02:33:31;;;;;;;6.37;3.83;;;;;;;11.90;100.00;101803.88;2064433;28;20512;-59
2023/10/13 02:34:31;;;;;;;6.57;3.33;;;;;;;11.85;100.00;101793.22;2064845;28;20443;-59
2023/10/13 02:35:41;;;;;;;5.07;3.03;;;;;;;11.92;100.00;101802.28;2056642;28;20955;-58
2023/10/13 02:36:48;;;;;;;5.67;3.10;;;;;;;11.93;100.00;101798.28;2055962;28;20230;-59
2023/10/13 02:37:55;;;;;;;5.27;3.33;;;;;;;11.91;100.00;101803.47;2056561;28;20497;-59
2023/10/13 02:38:57;;;;;;;6.73;3.40;;;;;;;11.38;100.00;101714.31;2057390;28;20454;-59
2023/10/13 02:40:00;;;;;;;4.10;2.97;;;;;;;11.92;100.00;101807.03;2057329;28;20517;-58
2023/10/13 02:41:07;;;;;;;5.53;3.67;;;;;;;11.93;100.00;101812.16;2057419;28;20956;-58
2023/10/13 02:42:09;;;;;;;5.30;3.50;;;;;;;11.84;100.00;101799.97;2056740;28;20423;-59
2023/10/13 02:43:10;;;;;;;9.37;3.53;;;;;;;11.93;100.00;101811.41;2064884;28;20523;-59
2023/10/13 02:44:20;;;;;;;8.03;3.97;;;;;;;11.92;100.00;101813.38;2064638;28;21025;-59
2023/10/13 02:45:25;;;;;;;7.53;3.33;;;;;;;11.88;100.00;101809.84;2056349;28;20476;-59
2023/10/13 02:46:29;;;;;;;5.17;3.27;;;;;;;11.88;100.00;101814.63;2056578;28;20468;-59
2023/10/13 02:47:31;;;;;;;9.30;3.77;;;;;;;11.89;100.00;101813.41;2057379;28;20446;-59
2023/10/13 02:48:41;;;;;;;11.63;3.43;;;;;;;11.75;100.00;101789.38;2057271;28;20453;-60
2023/10/13 02:49:47;;;;;;;8.13;3.30;;;;;;;11.91;100.00;101819.34;2057099;28;20483;-59
2023/10/13 02:50:55;;;;;;;7.03;3.47;;;;;;;11.90;100.00;101813.00;2057355;28;20449;-59
2023/10/13 02:51:58;;;;;;;18.00;3.37;;;;;;;11.90;100.00;101818.56;2056833;28;20532;-59
2023/10/13 02:52:59;;;;;;;4.20;3.00;;;;;;;11.90;100.00;101817.78;2057028;28;20441;-59
2023/10/13 02:54:02;;;;;;;5.33;3.23;;;;;;;11.87;100.00;101819.38;2055880;28;20516;-59
2023/10/13 02:55:08;;;;;;;5.13;3.17;;;;;;;11.79;100.00;101817.88;2057148;28;20627;-59
2023/10/13 02:56:13;;;;;;;9.37;3.50;;;;;;;11.77;100.00;101830.59;2056131;28;20409;-59
2023/10/13 02:57:15;;;;;;;6.37;3.40;;;;;;;11.79;100.00;101828.97;2057359;28;20945;-60
2023/10/13 02:58:15;;;;;;;5.67;3.27;;;;;;;11.79;100.00;101820.66;2056754;28;20418;-59
2023/10/13 02:59:19;;;;;;;6.03;3.20;;;;;;;11.79;100.00;101833.75;2057398;28;20472;-59
2023/10/13 03:00:22;;;;;;;5.47;3.50;;;;;;;11.77;100.00;101823.06;2057073;28;20226;-58
2023/10/13 03:01:28;;;;;;;4.67;3.27;;;;;;;11.04;100.00;101718.22;2056970;28;20524;-59
2023/10/13 03:02:30;;;;;;;4.63;3.23;;;;;;;11.75;100.00;101825.47;2056872;28;20438;-58
2023/10/13 03:03:30;;;;;;;4.93;2.73;;;;;;;11.71;100.00;101827.47;2057187;28;20823;-59
2023/10/13 03:04:31;;;;;;;4.87;1.47;;;;;;;11.66;100.00;101827.94;2057119;28;20446;-59
2023/10/13 03:05:35;;;;;;;5.07;2.97;;;;;;;11.66;100.00;101830.69;2056597;28;20582;-59
2023/10/13 03:06:36;;;;;;;8.00;3.50;;;;;;;11.67;100.00;101831.47;2056463;28;20433;-58
2023/10/13 03:07:37;;;;;;;5.40;3.30;;;;;;;11.63;100.00;101825.97;2060773;28;20508;-59
2023/10/13 03:08:38;;;;;;;5.43;3.20;;;;;;;11.70;100.00;101844.56;2057268;28;20430;-59
2023/10/13 03:09:39;;;;;;;8.90;3.17;;;;;;;11.70;100.00;101831.47;2057450;28;20277;-60
2023/10/13 03:10:46;;;;;;;5.90;3.20;;;;;;;11.67;100.00;101835.06;2056970;28;20827;-59
2023/10/13 03:11:48;;;;;;;5.17;3.07;;;;;;;11.67;100.00;101835.06;2057101;28;20645;-60
2023/10/13 03:12:49;;;;;;;4.57;3.03;;;;;;;11.69;100.00;101832.63;2057080;28;20438;-60
2023/10/13 03:13:52;;;;;;;4.93;3.17;;;;;;;11.57;100.00;101830.34;2056921;28;20462;-59
2023/10/13 03:15:09;;;;;;;6.27;3.47;;;;;;;11.70;100.00;101841.78;2057137;28;20266;-59
2023/10/13 03:16:16;;;;;;;4.90;3.07;;;;;;;10.85;100.00;101702.13;2056136;28;20589;-59
2023/10/13 03:17:19;;;;;;;7.20;3.03;;;;;;;11.72;100.00;101836.59;2056908;28;20522;-59
2023/10/13 03:18:19;;;;;;;7.77;3.70;;;;;;;11.69;100.00;101837.41;2056758;28;20971;-59
2023/10/13 03:19:20;;;;;;;5.67;3.60;;;;;;;11.50;100.00;101818.53;2056979;28;20820;-59
2023/10/13 03:20:31;;;;;;;7.77;3.57;;;;;;;11.72;100.00;101840.16;2056996;28;20257;-59
2023/10/13 03:21:31;;;;;;;5.00;3.20;;;;;;;11.75;100.00;101838.56;2057053;28;20481;-59
2023/10/13 03:22:32;;;;;;;7.17;2.90;;;;;;;11.76;100.00;101840.13;2056428;28;20434;-59
2023/10/13 03:23:45;;;;;;;6.53;3.87;;;;;;;11.76;100.00;101840.94;2057340;28;20183;-59
2023/10/13 03:24:49;;;;;;;5.07;3.53;;;;;;;11.65;100.00;101820.00;2064235;28;20190;-59
2023/10/13 03:25:50;;;;;;;4.60;3.00;;;;;;;11.76;100.00;101862.34;2064239;28;20962;-60
2023/10/13 03:26:52;;;;;;;5.07;3.30;;;;;;;11.64;100.00;101826.75;2056558;28;20853;-59
2023/10/13 03:28:54;;;;;;;6.60;3.73;;;;;;;11.76;100.00;101848.47;2056985;28;20500;-59
2023/10/13 03:29:54;;;;;;;6.30;3.40;;;;;;;11.77;100.00;101850.81;2056610;28;20203;-59
2023/10/13 03:30:55;;;;;;;6.17;3.40;;;;;;;11.78;100.00;101837.75;2056836;28;20914;-59
2023/10/13 03:32:06;;;;;;;5.47;3.13;;;;;;;11.69;100.00;101829.09;2056516;28;20178;-60
2023/10/13 03:33:25;;;;;;;9.77;3.90;;;;;;;11.13;100.00;101741.50;2056807;28;20257;-59
2023/10/13 03:34:29;;;;;;;12.13;3.87;;;;;;;11.83;100.00;101853.97;2056769;28;20457;-59
2023/10/13 03:35:53;;;;;;;9.30;3.60;;;;;;;10.99;100.00;101719.47;2056449;28;20481;-59
2023/10/13 03:36:59;;;;;;;5.73;3.87;;;;;;;11.42;100.00;101786.47;2056068;28;20825;-59
2023/10/13 03:37:59;;;;;;;7.10;3.87;;;;;;;11.85;100.00;101846.78;2056780;28;20453;-59
2023/10/13 03:38:59;;;;;;;6.97;3.43;;;;;;;11.86;100.00;101845.59;2056847;28;20520;-59
2023/10/13 03:40:00;;;;;;;4.80;3.33;;;;;;;11.87;100.00;101844.38;2056876;28;20266;-58
2023/10/13 03:41:08;;;;;;;5.60;3.30;;;;;;;11.90;100.00;101842.78;2056642;28;20195;-58
2023/10/13 03:42:11;;;;;;;5.20;3.70;;;;;;;11.90;100.00;101845.53;2055925;28;20199;-59
2023/10/13 03:43:11;;;;;;;6.63;3.83;;;;;;;11.67;100.00;101800.94;2057005;28;20578;-59
2023/10/13 03:44:17;;;;;;;7.43;3.70;;;;;;;11.92;100.00;101843.94;2057061;28;20500;-60
2023/10/13 03:45:18;;;;;;;4.20;3.07;;;;;;;11.95;100.00;101842.31;2056931;28;20189;-58
2023/10/13 03:46:21;;;;;;;7.17;3.77;;;;;;;11.92;100.00;101834.81;2056094;28;20454;-59
2023/10/13 03:47:32;;;;;;;5.03;3.03;;;;;;;11.94;100.00;101829.63;2056621;28;20199;-59
2023/10/13 03:48:40;;;;;;;8.77;3.43;;;;;;;11.58;100.00;101773.63;2056874;28;20441;-59
2023/10/13 03:49:41;;;;;;;8.03;3.77;;;;;;;11.95;100.00;101834.75;2056890;28;20540;-59
2023/10/13 03:50:47;;;;;;;10.03;4.07;;;;;;;11.70;100.00;101800.13;2056833;28;20434;-59
2023/10/13 03:51:48;;;;;;;7.23;3.70;;;;;;;11.28;100.00;101723.53;2056388;28;20191;-59
2023/10/13 03:52:49;;;;;;;7.83;3.30;;;;;;;11.96;100.00;101832.78;2056658;28;20894;-59
2023/10/13 03:53:52;;;;;;;4.27;2.83;;;;;;;11.97;100.00;101834.34;2063850;28;20524;-59
2023/10/13 03:54:52;;;;;;;5.47;3.33;;;;;;;11.99;100.00;101843.09;2063848;28;20194;-59
2023/10/13 03:56:07;;;;;;;5.33;3.03;;;;;;;12.00;100.00;101842.66;2056470;28;20449;-59
2023/10/13 03:57:11;;;;;;;3.23;2.50;;;;;;;11.87;100.00;101826.91;2056566;28;20169;-59
2023/10/13 03:58:12;;;;;;;5.23;2.97;;;;;;;12.04;100.00;101839.84;2056189;28;20423;-59
2023/10/13 04:00:23;;;;;;;8.77;2.90;;;;;;;12.04;100.00;101839.84;2056890;28;20436;-59
2023/10/13 04:02:47;;;;;;;11.27;3.67;;;;;;;12.03;100.00;101832.69;2048882;29;20761;-58
2023/10/13 04:04:03;;;;;;;7.17;3.43;;;;;;;12.01;100.00;101835.13;2049068;29;20761;-59
2023/10/13 04:05:26;;;;;;;6.30;3.30;;;;;;;12.00;100.00;101828.00;2048830;28;20407;-59
2023/10/13 04:16:34;;;;;;;6.60;3.87;;;;;;;11.74;100.00;101820.31;2051151;28;20445;-59
2023/10/13 04:17:15;;;;;;;5.40;3.30;;;;;;;11.71;100.00;101813.59;2054304;28;21102;-59
2023/10/13 04:18:33;;;;;;;5.87;3.70;;;;;;;11.70;100.00;101805.66;2056311;28;20964;-58
2023/10/13 04:20:12;;;;;;;9.30;3.67;;;;;;;11.68;100.00;101810.84;2056957;28;20245;-58
2023/10/13 04:21:07;;;;;;;10.50;3.20;;;;;;;11.63;100.00;101803.75;2055415;28;20466;-58
2023/10/13 04:22:14;;;;;;;5.47;2.97;;;;;;;11.45;100.00;101769.78;2054875;28;20469;-58
2023/10/13 04:23:19;;;;;;;7.30;3.73;;;;;;;11.64;100.00;101807.31;2055494;28;20531;-58
2023/10/13 04:24:59;;;;;;;4.30;2.90;;;;;;;11.60;100.00;101812.91;2054785;28;20955;-59
2023/10/13 04:26:21;;;;;;;9.17;3.60;;;;;;;11.52;100.00;101808.59;2054089;28;20423;-58
2023/10/13 04:27:44;;;;;;;5.83;3.60;;;;;;;11.52;100.00;101816.13;2053238;28;20450;-58
2023/10/13 04:28:55;;;;;;;5.80;3.00;;;;;;;11.48;100.00;101818.91;2054594;28;20438;-59
2023/10/13 04:31:11;;;;;;;13.53;3.57;;;;;;;11.37;100.00;101823.00;2057357;28;20442;-59
2023/10/13 04:32:27;;;;;;;6.40;3.63;;;;;;;10.84;100.00;101756.81;2054019;28;20537;-59
2023/10/13 04:33:44;;;;;;;6.50;3.67;;;;;;;11.23;100.00;101820.34;2054401;28;20572;-59
2023/10/13 04:34:51;;;;;;;6.23;3.73;;;;;;;11.11;100.00;101826.34;2054160;28;20564;-59
2023/10/13 04:35:58;;;;;;;9.23;3.50;;;;;;;10.99;100.00;101819.31;2053988;28;20944;-58
2023/10/13 04:37:11;;;;;;;5.53;3.73;;;;;;;10.94;100.00;101825.28;2053567;28;20990;-59
2023/10/13 04:38:19;;;;;;;5.63;3.67;;;;;;;10.91;100.00;101819.78;2054180;28;20434;-59
2023/10/13 04:39:29;;;;;;;7.27;3.47;;;;;;;10.92;100.00;101821.34;2055038;28;20509;-59
2023/10/13 04:40:35;;;;;;;6.97;4.10;;;;;;;10.92;100.00;101827.66;2055177;28;20454;-59
2023/10/13 04:41:39;;;;;;;8.97;4.30;;;;;;;10.95;100.00;101818.53;2055219;28;20450;-59
2023/10/13 04:42:49;;;;;;;6.80;3.73;;;;;;;10.95;100.00;101818.53;2054924;28;20442;-59
2023/10/13 04:43:56;;;;;;;10.30;6.13;;;;;;;10.93;100.00;101822.91;2054552;28;20483;-59
2023/10/13 04:45:01;;;;;;;8.87;5.20;;;;;;;10.91;100.00;101822.53;2054967;28;20514;-59
2023/10/13 04:46:25;;;;;;;10.80;5.63;;;;;;;10.87;100.00;101830.84;2054162;28;20927;-59
2023/10/13 04:47:21;;;;;;;12.63;4.90;;;;;;;10.76;100.00;101829.38;2054884;28;20533;-59
2023/10/13 04:49:29;;;;;;;13.00;4.20;;;;;;;10.64;100.00;101827.84;2049258;28;20311;-59
2023/10/13 04:50:41;;;;;;;8.43;3.70;;;;;;;10.64;100.00;101836.16;2052383;28;20198;-60
2023/10/13 04:51:58;;;;;;;6.97;4.20;;;;;;;10.67;100.00;101829.00;2052143;28;20494;-59
2023/10/13 04:53:02;;;;;;;5.10;3.10;;;;;;;10.23;100.00;101757.56;2045126;28;20454;-59
2023/10/13 04:54:25;;;;;;;5.87;4.07;;;;;;;10.66;100.00;101830.22;2044341;28;20937;-58
2023/10/13 04:56:59;;;;;;;19.87;7.83;;;;;;;10.74;100.00;101834.50;2036869;28;20465;-58
2023/10/13 04:58:10;;;;;;;8.63;5.93;;;;;;;10.03;100.00;101719.63;2058405;28;20461;-58
2023/10/13 05:00:55;;;;;;;7.50;4.03;;;;;;;10.63;100.00;101833.78;2051899;28;20466;-58
2023/10/13 05:04:57;;;;;;;5.03;3.30;;;;;;;10.41;100.00;101801.81;2050018;28;20436;-58
2023/10/13 05:44:33;;;;;;;7.07;3.90;;;;;;;10.65;100.00;101864.66;2049061;28;20704;-61
2023/10/13 05:50:49;;;;;;;6.33;3.93;;;;;;;12.67;100.00;101908.63;2055941;28;21033;-58
2023/10/13 06:28:49;;;;;;;5.10;3.37;;;;;;;14.77;100.00;101935.91;2032258;28;20582;-58
2023/10/13 06:29:50;;;;;;;5.40;3.43;;;;;;;14.86;100.00;101939.69;2056133;28;20453;-58
2023/10/13 06:30:56;;;;;;;7.63;3.57;;;;;;;14.95;100.00;101945.47;2041166;28;20895;-58
2023/10/13 06:31:57;;;;;;;8.17;3.77;;;;;;;15.00;100.00;101946.97;2045899;28;20190;-58
2023/10/13 06:32:58;;;;;;;7.03;4.30;;;;;;;15.03;100.00;101940.53;2052930;28;21133;-58
2023/10/13 06:33:59;;;;;;;8.07;4.20;;;;;;;14.87;100.00;101920.94;2057934;28;20466;-58
2023/10/13 06:35:18;;;;;;;5.67;3.77;;;;;;;15.05;100.00;101947.25;2040293;28;20206;-58
2023/10/13 06:36:19;;;;;;;7.13;3.77;;;;;;;15.00;100.00;101952.56;2043584;28;20207;-58
2023/10/13 06:37:22;;;;;;;6.20;3.97;;;;;;;14.84;100.00;101916.22;2044154;28;20437;-58
2023/10/13 06:38:24;;;;;;;6.97;3.83;;;;;;;14.95;100.00;101925.13;2049381;28;20222;-58
2023/10/13 06:39:37;;;;;;;9.23;4.40;;;;;;;15.07;100.00;101924.50;2040637;28;24141;-58
2023/10/13 06:40:41;;;;;;;6.83;4.13;;;;;;;15.21;100.00;101936.13;2051796;28;20456;-58
2023/10/13 06:41:43;;;;;;;5.60;3.70;;;;;;;15.38;100.00;101948.19;2034404;28;20484;-58
2023/10/13 06:42:44;;;;;;;6.20;4.17;;;;;;;15.06;100.00;101906.19;2038784;28;20877;-58